createdAt,value
2022-11-15T00:02:06.389Z,3.65
2022-11-15T00:07:08.123Z,2.92
2022-11-15T00:12:09.839Z,2.80
2022-11-15T00:17:11.561Z,2.50
2022-11-15T00:22:13.230Z,5.43
2022-11-15T00:27:14.942Z,16.95
2022-11-15T00:32:17.008Z,12.45
2022-11-15T00:37:18.684Z,10.30
2022-11-15T00:42:20.338Z,6.85
2022-11-15T00:47:21.988Z,5.45
2022-11-15T00:52:23.825Z,5.35
2022-11-15T00:57:25.471Z,6.65
2022-11-15T01:02:27.132Z,8.30
2022-11-15T01:07:28.858Z,11.45
2022-11-15T01:12:30.789Z,7.55
2022-11-15T01:17:32.653Z,10.07
2022-11-15T01:22:34.327Z,6.20
2022-11-15T01:27:35.961Z,7.53
2022-11-15T01:32:37.684Z,12.25
2022-11-15T01:37:39.388Z,11.00
2022-11-15T01:42:41.130Z,6.90
2022-11-15T01:47:49.625Z,3.55
2022-11-15T01:52:51.698Z,4.07
2022-11-15T01:57:58.779Z,4.13
2022-11-15T02:03:00.760Z,1.98
2022-11-15T02:08:02.701Z,7.07
2022-11-15T02:13:04.535Z,5.82
2022-11-15T02:18:16.450Z,4.35
2022-11-15T02:23:51.962Z,2.92
2022-11-15T02:29:15.047Z,1.90
2022-11-15T02:34:35.263Z,1.65
2022-11-15T02:39:45.513Z,1.92
2022-11-15T02:44:47.760Z,2.03
2022-11-15T02:49:51.988Z,1.70
2022-11-15T02:54:56.252Z,1.50
2022-11-15T03:00:08.069Z,2.25
2022-11-15T03:05:34.225Z,2.92
2022-11-15T03:10:41.647Z,2.85
2022-11-15T03:15:53.894Z,2.65
2022-11-15T03:20:58.898Z,7.50
2022-11-15T03:26:01.890Z,10.98
2022-11-15T03:31:25.055Z,3.17
2022-11-15T03:36:27.824Z,2.20
2022-11-15T03:41:38.636Z,2.30
2022-11-15T03:47:04.315Z,2.13
2022-11-15T03:52:06.849Z,1.60
2022-11-15T03:57:08.543Z,1.63
2022-11-15T04:02:10.620Z,1.40
2022-11-15T04:07:12.696Z,1.90
2022-11-15T04:12:31.456Z,2.75
2022-11-15T04:17:33.104Z,2.10
2022-11-15T04:22:54.114Z,1.75
2022-11-15T04:27:56.235Z,2.05
2022-11-15T04:32:57.954Z,1.80
2022-11-15T04:38:00.300Z,1.55
2022-11-15T04:43:04.113Z,2.30
2022-11-15T04:48:06.086Z,1.88
2022-11-15T04:53:07.812Z,1.70
2022-11-15T04:58:10.536Z,1.40
2022-11-15T05:03:30.961Z,2.40
2022-11-15T05:08:32.956Z,2.40
2022-11-15T05:13:34.667Z,2.30
2022-11-15T05:18:36.923Z,2.10
2022-11-15T05:23:39.210Z,2.13
2022-11-15T05:28:41.342Z,1.98
2022-11-15T05:33:44.206Z,1.90
2022-11-15T05:38:47.010Z,2.00
2022-11-15T05:43:50.324Z,1.77
2022-11-15T05:48:54.535Z,1.80
2022-11-15T05:53:59.055Z,1.63
2022-11-15T05:59:01.070Z,1.92
2022-11-15T06:04:03.136Z,1.67
2022-11-15T06:09:04.816Z,5.95
2022-11-15T06:14:06.508Z,4.57
2022-11-15T06:19:08.969Z,3.70
2022-11-15T06:24:10.703Z,2.90
2022-11-15T06:29:12.362Z,2.50
2022-11-15T06:34:14.069Z,2.15
2022-11-15T06:39:15.743Z,4.03
2022-11-15T06:44:17.478Z,1.88
2022-11-15T06:49:19.149Z,3.60
2022-11-15T06:54:21.936Z,2.08
2022-11-15T06:59:23.650Z,3.33
2022-11-15T07:04:25.357Z,2.97
2022-11-15T07:09:27.791Z,2.00
2022-11-15T07:14:29.471Z,8.63
2022-11-15T07:19:31.226Z,10.57
2022-11-15T07:24:32.918Z,6.93
2022-11-15T07:29:34.640Z,6.28
2022-11-15T07:34:36.324Z,6.50
2022-11-15T07:39:38.003Z,15.55
2022-11-15T07:44:39.617Z,21.27
2022-11-15T07:49:41.459Z,20.02
2022-11-15T07:54:43.112Z,15.05
2022-11-15T07:59:44.809Z,13.05
2022-11-15T08:04:46.691Z,7.50
2022-11-15T08:09:48.446Z,15.88
2022-11-15T08:14:50.619Z,25.08
2022-11-15T08:19:52.355Z,27.60
2022-11-15T08:24:54.005Z,30.25
2022-11-15T08:29:59.430Z,22.85
2022-11-15T08:35:01.393Z,31.77
2022-11-15T08:40:03.476Z,26.20
2022-11-15T08:45:05.596Z,21.23
2022-11-15T08:50:07.995Z,20.17
2022-11-15T08:55:09.886Z,19.42
2022-11-15T09:00:13.127Z,16.90
2022-11-15T09:05:16.428Z,13.48
2022-11-15T09:10:18.363Z,7.10
2022-11-15T09:15:20.760Z,5.93
2022-11-15T09:20:22.438Z,6.88
2022-11-15T09:25:24.083Z,6.32
2022-11-15T09:30:26.610Z,5.57
2022-11-15T09:35:28.258Z,4.95
2022-11-15T09:40:32.634Z,4.30
2022-11-15T09:45:48.179Z,4.43
2022-11-15T09:50:51.955Z,4.05
2022-11-15T09:56:01.276Z,3.15
2022-11-15T10:01:11.324Z,4.20
2022-11-15T10:06:24.280Z,4.63
2022-11-15T10:11:39.788Z,4.85
2022-11-15T10:17:07.493Z,4.75
2022-11-15T10:22:31.529Z,4.30
2022-11-15T10:27:33.257Z,3.30
2022-11-15T10:32:37.195Z,3.85
2022-11-15T10:37:38.847Z,3.05
2022-11-15T10:42:40.660Z,3.30
2022-11-15T10:47:42.411Z,4.53
2022-11-15T10:52:47.829Z,3.80
2022-11-15T10:57:56.319Z,3.67
2022-11-15T11:03:06.514Z,4.35
2022-11-15T11:08:11.283Z,5.50
2022-11-15T11:13:24.054Z,4.63
2022-11-15T11:18:48.011Z,4.13
2022-11-15T11:23:59.589Z,3.17
2022-11-15T11:29:30.932Z,2.83
2022-11-15T11:34:55.177Z,3.17
2022-11-15T11:40:13.942Z,3.22
2022-11-15T11:45:36.788Z,3.33
2022-11-15T11:50:39.538Z,2.88
2022-11-15T11:55:46.862Z,5.70
2022-11-15T12:00:53.310Z,2.70
2022-11-15T12:06:02.779Z,2.17
2022-11-15T12:11:16.061Z,2.30
2022-11-15T12:16:20.091Z,2.22
2022-11-15T12:22:04.748Z,2.47
2022-11-15T12:27:41.579Z,3.10
2022-11-15T12:33:01.447Z,2.95
2022-11-15T12:38:03.250Z,3.58
2022-11-15T12:43:13.842Z,4.32
2022-11-15T12:48:18.582Z,3.25
2022-11-15T12:53:26.424Z,2.58
2022-11-15T12:58:39.874Z,3.25
2022-11-15T13:04:13.874Z,1.90
2022-11-15T13:09:39.063Z,3.60
2022-11-15T13:14:47.997Z,2.00
2022-11-15T13:19:59.648Z,1.27
2022-11-15T13:25:05.382Z,1.25
2022-11-15T13:30:14.274Z,1.20
2022-11-15T13:35:24.582Z,1.55
2022-11-15T13:40:31.234Z,1.42
2022-11-15T13:45:32.909Z,1.10
2022-11-15T13:50:38.004Z,2.03
2022-11-15T13:55:39.716Z,2.78
2022-11-15T14:00:46.040Z,3.80
2022-11-15T14:06:21.713Z,4.60
2022-11-15T14:11:23.397Z,4.47
2022-11-15T14:16:38.243Z,3.75
2022-11-15T14:22:32.264Z,5.57
2022-11-15T14:27:34.766Z,3.80
2022-11-15T14:32:50.790Z,2.88
2022-11-15T14:37:52.528Z,4.32
2022-11-15T14:42:54.236Z,6.20
2022-11-15T14:47:56.157Z,4.55
2022-11-15T14:52:57.834Z,3.13
2022-11-15T14:58:00.133Z,3.60
2022-11-15T15:03:02.317Z,2.80
2022-11-15T15:08:04.731Z,2.40
2022-11-15T15:13:07.338Z,1.70
2022-11-15T15:18:09.631Z,1.40
2022-11-15T15:23:21.423Z,2.13
2022-11-15T15:28:23.133Z,7.63
2022-11-15T15:33:24.805Z,10.30
2022-11-15T15:38:26.507Z,9.13
2022-11-15T15:43:28.697Z,3.90
2022-11-15T15:48:30.784Z,4.50
2022-11-15T15:53:32.856Z,2.88
2022-11-15T15:58:35.432Z,1.70
2022-11-15T16:03:37.388Z,2.65
2022-11-15T16:09:00.512Z,3.47
2022-11-15T16:14:00.721Z,7.40
2022-11-15T16:19:02.487Z,6.55
2022-11-15T16:24:04.514Z,8.25
2022-11-15T16:29:07.842Z,3.08
2022-11-15T16:34:09.560Z,5.38
2022-11-15T16:39:15.728Z,3.85
2022-11-15T16:44:17.382Z,11.35
2022-11-15T16:49:20.624Z,19.00
2022-11-15T16:54:22.316Z,23.08
2022-11-15T16:59:24.010Z,16.48
2022-11-15T17:04:27.713Z,38.20
2022-11-15T17:09:29.450Z,38.35
2022-11-15T17:14:31.182Z,37.55
2022-11-15T17:19:32.900Z,32.83
2022-11-15T17:24:34.698Z,36.80
2022-11-15T17:29:36.426Z,28.27
2022-11-15T17:34:38.531Z,24.80
2022-11-15T17:39:40.594Z,16.92
2022-11-15T17:44:42.285Z,13.65
2022-11-15T17:49:43.997Z,9.43
2022-11-15T17:54:45.653Z,3.35
2022-11-15T17:59:48.706Z,10.07
2022-11-15T18:04:50.461Z,4.32
2022-11-15T18:09:53.663Z,4.93
2022-11-15T18:14:55.586Z,2.97
2022-11-15T18:19:58.605Z,12.07
2022-11-15T18:25:00.267Z,11.35
2022-11-15T18:30:01.956Z,11.35
2022-11-15T18:35:04.488Z,22.92
2022-11-15T18:40:06.804Z,8.85
2022-11-15T18:45:09.549Z,11.52
2022-11-15T18:50:11.211Z,6.75
2022-11-15T18:55:14.408Z,3.40
2022-11-15T19:00:16.901Z,17.05
2022-11-15T19:05:21.308Z,4.70
2022-11-15T19:10:22.984Z,9.05
2022-11-15T19:15:24.645Z,4.10
2022-11-15T19:20:26.360Z,3.70
2022-11-15T19:25:29.950Z,5.20
2022-11-15T19:30:31.642Z,7.93
2022-11-15T19:35:33.747Z,5.20
2022-11-15T19:40:36.010Z,7.07
2022-11-15T19:45:38.292Z,6.68
2022-11-15T19:50:40.347Z,16.05
2022-11-15T19:55:42.546Z,17.08
2022-11-15T20:00:44.323Z,15.68
2022-11-15T20:05:46.412Z,15.65
2022-11-15T20:10:48.896Z,13.27
2022-11-15T20:15:50.608Z,21.13
2022-11-15T20:20:52.605Z,19.17
2022-11-15T20:25:54.981Z,18.85
2022-11-15T20:30:58.960Z,18.73
2022-11-15T20:36:09.512Z,25.30
2022-11-15T20:41:12.609Z,11.33
2022-11-15T20:46:14.818Z,15.63
2022-11-15T20:51:18.271Z,12.52
2022-11-15T20:56:21.834Z,8.85
2022-11-15T21:01:24.768Z,13.75
2022-11-15T21:06:27.518Z,16.95
2022-11-15T21:11:48.471Z,17.42
2022-11-15T21:16:50.366Z,14.80
2022-11-15T21:21:52.035Z,13.98
2022-11-15T21:26:54.698Z,7.47
2022-11-15T21:31:56.454Z,5.82
2022-11-15T21:36:58.849Z,5.60
2022-11-15T21:42:00.588Z,8.07
2022-11-15T21:47:02.471Z,7.10
2022-11-15T21:52:04.573Z,6.75
2022-11-15T21:57:06.271Z,10.23
2022-11-15T22:02:15.481Z,7.15
2022-11-15T22:07:17.627Z,7.57
2022-11-15T22:12:19.414Z,6.90
2022-11-15T22:17:21.522Z,6.18
2022-11-15T22:22:23.203Z,6.30
2022-11-15T22:27:24.973Z,6.40
2022-11-15T22:32:26.677Z,5.55
2022-11-15T22:37:28.828Z,5.95
2022-11-15T22:42:32.242Z,5.00
2022-11-15T22:47:34.100Z,5.18
2022-11-15T22:52:35.914Z,7.03
2022-11-15T22:57:40.449Z,11.80
2022-11-15T23:02:42.603Z,9.95
2022-11-15T23:07:45.660Z,9.20
2022-11-15T23:13:05.992Z,8.52
2022-11-15T23:18:07.673Z,7.95
2022-11-15T23:23:09.382Z,6.53
2022-11-15T23:28:11.094Z,6.47
2022-11-15T23:33:33.329Z,8.27
2022-11-15T23:43:39.882Z,4.35
2022-11-15T23:48:41.637Z,6.00
2022-11-15T23:53:43.657Z,4.90
2022-11-15T23:58:45.919Z,7.13
